M I D A S
Marine Information and Data Acquisition System
Tripno 2098 of the Zeeleeuw from 2011-05-09 07:32:46 to 2011-05-09 14:36:38
Back to CruiseResearch ActivitiesStationsMapUnderway DataData graphs

EquipmentUnitsComment
TimeDGPSUTC
LatitudeDGPSDM.mWGS84
LongitudeDGPSDM.mWGS84
TemperatureSBE03/SBE38deg celciusITS90
ConductivitySBE21S/mITS90
SalinitySBE21 Practical Salinity Units
ChlorophylAChelsea fluorimeterg/lCalibrated in Aceton
Missing or incorrect values are displayed as -999
Sea surface data collected by the RV Zeeleeuw from 2011-05-09 07:16:12 to 2011-05-09 14:47:01
Time Latitude Longitude Temperature Conductivity Salinity ChlorophylA
2011-05-09 07:17:18 51°13.661 2°55.959 16.9835 0.075713 0.396756 -3.020363
2011-05-09 07:18:17 51°13.66 2°55.961 16.9884 0.075713 0.396796 -3.020363
2011-05-09 07:19:17 51°13.662 2°55.952 16.9826 0.075713 0.396822 -3.020363
2011-05-09 07:20:21 51°13.681 2°55.87 17.0057 0.075713 0.396869 -3.020363
2011-05-09 07:21:21 51°13.693 2°55.772 17.0121 0.075713 0.396908 -3.020363
2011-05-09 07:22:20 51°13.703 2°55.746 17.0383 0.075713 0.396942 -3.020363
2011-05-09 07:23:19 51°13.752 2°55.714 17.02 0.075713 0.396942 -3.020363
2011-05-09 07:24:18 51°13.862 2°55.615 16.9693 0.075713 0.396968 -3.020363
2011-05-09 07:25:18 51°14.004 2°55.509 17.0035 0.075713 0.397028 -3.020363
2011-05-09 07:26:19 51°14.151 2°55.4 16.9138 0.075713 0.397067 -3.020363
2011-05-09 07:27:18 51°14.287 2°55.27 16.98 0.075713 0.39712 -3.020363
2011-05-09 07:28:18 51°14.436 2°55.128 16.9879 0.075713 0.39718 -3.020363
2011-05-09 07:29:18 51°14.588 2°54.968 17.0204 0.075611 0.396722 -3.020363
2011-05-09 07:30:18 51°14.648 2°54.683 17.0241 0.075713 0.397359 -3.020363
2011-05-09 07:31:17 51°14.545 2°54.409 16.9449 0.075611 0.396835 -3.020363
2011-05-09 07:32:17 51°14.419 2°54.126 16.9971 0.075611 0.396921 -3.020363
2011-05-09 07:33:17 51°14.318 2°53.822 17.017 0.075611 0.397008 -3.020363
2011-05-09 07:34:18 51°14.198 2°53.526 17.0124 0.075611 0.397087 -3.020363
2011-05-09 07:35:18 51°14.08 2°53.235 17.04 0.075611 0.397207 -3.020363
2011-05-09 07:36:18 51°13.977 2°52.928 17.0446 0.075611 0.397327 -3.020363
2011-05-09 07:37:18 51°13.859 2°52.633 17.0339 0.075611 0.39744 -3.020363
2011-05-09 07:38:18 51°13.744 2°52.336 17.0731 0.075611 0.397533 -3.020363
2011-05-09 07:39:18 51°13.631 2°52.039 17.0764 0.075508 0.397101 -3.020363
2011-05-09 07:40:18 51°13.517 2°51.744 17.0854 0.075508 0.397221 -3.020363
2011-05-09 07:41:17 51°13.426 2°51.438 17.1103 0.075508 0.397327 -3.020363
2011-05-09 07:42:17 51°13.326 2°51.132 17.1263 0.075508 0.397447 -3.020363
2011-05-09 07:43:18 51°13.219 2°50.827 17.1362 0.075508 0.397547 -3.020363
2011-05-09 07:44:18 51°13.124 2°50.515 17.1645 0.075405 0.397081 -3.020363
2011-05-09 07:45:17 51°13.016 2°50.219 17.1426 0.075405 0.397182 -3.020363
2011-05-09 07:46:18 51°12.917 2°49.902 17.1691 0.075405 0.397302 -3.020363
2011-05-09 07:47:18 51°12.819 2°49.589 17.1958 0.075405 0.397455 -3.020363
2011-05-09 07:48:18 51°12.713 2°49.285 17.2188 0.075405 0.397602 -3.020363
2011-05-09 07:49:17 51°12.611 2°48.982 17.2227 0.075302 0.397189 -3.020363
2011-05-09 07:50:18 51°12.507 2°48.668 17.2401 0.075302 0.397343 -3.020363
2011-05-09 07:51:17 51°12.413 2°48.356 17.2602 0.075302 0.397497 -3.020363
2011-05-09 07:52:17 51°12.31 2°48.046 17.2389 0.075302 0.397685 -3.020363
2011-05-09 07:53:18 51°12.203 2°47.731 17.2708 0.075199 0.397291 -3.020363
2011-05-09 07:54:18 51°12.121 2°47.404 17.292 0.075199 0.397465 -3.020363
2011-05-09 07:55:18 51°12.045 2°47.074 17.3169 0.075199 0.39762 -3.020363
2011-05-09 07:56:17 51°11.968 2°46.754 17.3125 0.075097 0.397212 -3.020363
2011-05-09 07:57:18 51°11.898 2°46.415 17.3464 0.075097 0.397367 -3.020363
2011-05-09 07:58:17 51°11.813 2°46.096 17.3412 0.075097 0.397514 -3.020363
2011-05-09 07:59:17 51°11.746 2°45.759 17.3569 0.075097 0.397676 -3.020363
2011-05-09 08:00:18 51°11.712 2°45.404 17.3747 0.074994 0.397268 -3.020363
2011-05-09 08:01:18 51°11.665 2°45.059 17.3963 0.074994 0.397402 -3.020363
2011-05-09 08:02:18 51°11.621 2°44.713 17.4143 0.074891 0.396994 -3.020363
2011-05-09 08:03:17 51°11.584 2°44.37 17.426 0.074891 0.397149 -3.020363
2011-05-09 08:04:18 51°11.554 2°44.012 17.4301 0.074891 0.39729 -3.020363
2011-05-09 08:05:17 51°11.538 2°43.665 17.4576 0.074788 0.396868 -3.020363
2011-05-09 08:06:17 51°11.508 2°43.318 17.4374 0.074788 0.396996 -3.020363
2011-05-09 08:07:18 51°11.488 2°42.962 17.4989 0.074788 0.397138 -3.020363
2011-05-09 08:08:18 51°11.455 2°42.613 17.4749 0.074788 0.397273 -3.020363
2011-05-09 08:09:17 51°11.436 2°42.268 17.52 0.074685 0.39685 -3.020363
2011-05-09 08:10:17 51°11.379 2°41.929 17.4997 0.074685 0.396978 -3.020363
2011-05-09 08:11:18 51°11.308 2°41.589 17.5605 0.074685 0.39712 -3.020363
2011-05-09 08:12:17 51°11.187 2°41.303 17.5423 0.074583 0.396683 -3.020363
2011-05-09 08:13:18 51°11.062 2°41.003 17.555 0.074583 0.396819 -3.020363
2011-05-09 08:14:18 51°10.946 2°40.706 17.5901 0.074583 0.396947 -3.020363
2011-05-09 08:15:18 51°10.823 2°40.419 17.6015 0.074583 0.397076 -3.020363
2011-05-09 08:16:18 51°10.706 2°40.121 17.6301 0.07448 0.396652 -3.020363
2011-05-09 08:17:17 51°10.59 2°39.828 17.6327 0.07448 0.396787 -3.020363
2011-05-09 08:18:18 51°10.464 2°39.528 17.6559 0.07448 0.396936 -3.020363
2011-05-09 08:19:18 51°10.348 2°39.224 17.6848 0.074377 0.396519 -3.020363
2011-05-09 08:20:18 51°10.235 2°38.918 17.7094 0.074377 0.396668 -3.020363
2011-05-09 08:21:18 51°10.108 2°38.625 17.6992 0.074377 0.396817 -3.020363
2011-05-09 08:22:18 51°9.994 2°38.317 17.7058 0.074274 0.39642 -3.020363
2011-05-09 08:23:18 51°9.876 2°38.012 17.7363 0.074274 0.396576 -3.020363
2011-05-09 08:24:18 51°9.758 2°37.706 17.7594 0.074274 0.396746 -3.020363
2011-05-09 08:25:18 51°9.64 2°37.4 17.7782 0.074171 0.396348 -3.020363
2011-05-09 08:26:18 51°9.519 2°37.094 17.8064 0.074171 0.396518 -3.020363
2011-05-09 08:27:16 51°9.406 2°36.791 17.817 0.074171 0.396674 -3.020363
2011-05-09 08:28:18 51°9.293 2°36.49 17.7956 0.074069 0.396289 -3.020363
2011-05-09 08:29:18 51°9.276 2°36.275 17.8806 0.074069 0.396487 -3.020363
2011-05-09 08:30:18 51°9.271 2°36.162 17.9144 0.074069 0.396677 -3.020363
2011-05-09 08:31:18 51°9.265 2°36.126 17.9324 0.073966 0.396272 -3.020363
2011-05-09 08:32:18 51°9.268 2°36.107 17.9324 0.073966 0.396429 -3.020363
2011-05-09 08:33:18 51°9.27 2°36.085 17.9526 0.073966 0.396558 -3.020363
2011-05-09 08:34:18 51°9.27 2°36.062 17.9778 0.073966 0.396667 -3.020363
2011-05-09 08:35:18 51°9.269 2°36.039 17.9942 0.073863 0.396186 -3.020363
2011-05-09 08:36:18 51°9.269 2°36.013 17.7746 0.073863 0.396275 -3.020363
2011-05-09 08:37:18 51°9.267 2°35.988 17.803 0.073863 0.396343 -3.020363
2011-05-09 08:38:18 51°9.265 2°35.962 17.8583 0.073863 0.396412 -3.020363
2011-05-09 08:39:18 51°9.262 2°35.936 17.8858 0.073863 0.396473 -3.020363
2011-05-09 08:40:18 51°9.258 2°35.909 17.9128 0.07376 0.395964 -3.020363
2011-05-09 08:41:17 51°9.255 2°35.883 17.9403 0.07376 0.396019 -3.020363
2011-05-09 08:42:18 51°9.25 2°35.854 17.9657 0.07376 0.396073 -3.020363
2011-05-09 08:43:18 51°9.246 2°35.825 17.9892 0.07376 0.396128 -3.020363
2011-05-09 08:44:18 51°9.24 2°35.797 18.0226 0.07376 0.396176 -3.020363
2011-05-09 08:45:17 51°9.199 2°35.792 18.0388 0.07376 0.396217 -3.020363
2011-05-09 08:46:18 51°9.112 2°35.725 18.0784 0.07376 0.396285 -3.020363
2011-05-09 08:47:18 51°9.064 2°35.617 18.1084 0.07376 0.396306 -3.020363
2011-05-09 08:48:18 51°9.029 2°35.519 18.1394 0.07376 0.396326 -3.020363
2011-05-09 08:49:18 51°9.004 2°35.429 18.1652 0.07376 0.396361 -3.020363
2011-05-09 08:50:18 51°8.981 2°35.346 18.1958 0.07376 0.396395 -3.020363
2011-05-09 08:51:17 51°8.961 2°35.27 18.2206 0.073657 0.395858 -3.020363
2011-05-09 08:52:17 51°8.941 2°35.195 18.2484 0.073657 0.395892 -3.020363
2011-05-09 08:53:17 51°8.919 2°35.119 18.2864 0.073657 0.395933 -3.020363
2011-05-09 08:54:18 51°8.895 2°35.032 18.3188 0.073657 0.395974 -3.020363
2011-05-09 08:55:17 51°8.869 2°34.945 18.3465 0.073657 0.396022 -3.020363
2011-05-09 08:56:18 51°8.84 2°34.852 18.3727 0.073657 0.39607 -3.020363
2011-05-09 08:57:18 51°8.81 2°34.76 18.4063 0.073657 0.396125 -3.020363
2011-05-09 08:58:18 51°8.779 2°34.668 18.4352 0.073657 0.396173 -3.020363
2011-05-09 08:59:17 51°8.748 2°34.575 18.4674 0.073657 0.396228 -3.020363
2011-05-09 09:00:18 51°8.716 2°34.479 18.5017 0.073657 0.396275 -3.020363
2011-05-09 09:01:17 51°8.685 2°34.386 18.5245 0.073657 0.39633 -3.020363
2011-05-09 09:02:17 51°8.655 2°34.29 18.558 0.073657 0.396385 -3.020363
2011-05-09 09:03:18 51°8.624 2°34.191 18.5836 0.073657 0.396433 -3.020363
2011-05-09 09:04:17 51°8.595 2°34.095 18.6151 0.073555 0.395909 -3.020363
2011-05-09 09:05:18 51°8.565 2°33.996 18.6444 0.073657 0.396529 -3.020363
2011-05-09 09:06:18 51°8.534 2°33.9 18.6868 0.073657 0.39657 -3.020363
2011-05-09 09:07:17 51°8.503 2°33.806 18.7145 0.073555 0.396046 -3.020363
2011-05-09 09:08:17 51°8.469 2°33.713 18.7282 0.073555 0.396094 -3.020363
2011-05-09 09:09:18 51°8.435 2°33.618 18.767 0.073555 0.396156 -3.020363
2011-05-09 09:10:17 51°8.403 2°33.525 18.7946 0.073555 0.396218 -3.020363
2011-05-09 09:11:17 51°8.372 2°33.431 18.8204 0.073555 0.39628 -3.020363
2011-05-09 09:12:18 51°8.341 2°33.334 18.8645 0.073555 0.396341 -3.020363
2011-05-09 09:13:18 51°8.311 2°33.239 18.8951 0.073555 0.396396 -3.020363
2011-05-09 09:14:18 51°8.281 2°33.143 18.9298 0.073555 0.396458 -3.020363
2011-05-09 09:15:17 51°8.25 2°33.05 18.953 0.073555 0.396513 -3.020363
2011-05-09 09:16:18 51°8.216 2°32.956 18.989 0.073555 0.396575 -3.020363
2011-05-09 09:17:18 51°8.188 2°32.858 19.0229 0.073555 0.39663 -3.020363
2011-05-09 09:18:18 51°8.177 2°32.754 19.0511 0.073555 0.396699 -3.020363
2011-05-09 09:19:18 51°8.182 2°32.654 19.0742 0.073452 0.396174 -3.020363
2011-05-09 09:20:17 51°8.2 2°32.566 19.1157 0.073452 0.396222 -3.020363
2011-05-09 09:21:18 51°8.231 2°32.489 19.1327 0.073452 0.39627 -3.020363
2011-05-09 09:22:17 51°8.27 2°32.438 19.1721 0.073452 0.396311 -3.020363
2011-05-09 09:23:18 51°8.324 2°32.466 19.1426 0.073452 0.396353 -3.020363
2011-05-09 09:24:17 51°8.336 2°32.55 19.2259 0.073452 0.396387 -3.020363
2011-05-09 09:25:18 51°8.331 2°32.623 19.254 0.073452 0.396415 -3.020363
2011-05-09 09:26:18 51°8.357 2°32.714 19.2538 0.073452 0.396428 -3.020363
2011-05-09 09:27:17 51°8.385 2°32.732 19.3041 0.073452 0.396477 -3.020363
2011-05-09 09:28:17 51°8.406 2°32.724 19.3431 0.073452 0.396525 -3.020363
2011-05-09 09:29:17 51°8.461 2°32.734 19.3468 0.073452 0.39658 -3.020363
2011-05-09 09:30:18 51°8.535 2°32.773 19.3892 0.073452 0.396594 -3.020363
2011-05-09 09:31:17 51°8.577 2°32.782 19.4099 0.073452 0.396635 -3.020363
2011-05-09 09:32:18 51°8.605 2°32.766 19.4365 0.073452 0.396676 -3.020363
2011-05-09 09:33:18 51°8.63 2°32.743 19.4489 0.073452 0.396704 -3.020363
2011-05-09 09:34:17 51°8.693 2°32.81 19.469 0.073452 0.396766 -3.020363
2011-05-09 09:35:17 51°8.762 2°32.876 19.5156 0.073452 0.396814 -3.020363
2011-05-09 09:36:18 51°8.808 2°32.859 19.5428 0.073452 0.396835 -3.020363
2011-05-09 09:37:17 51°8.836 2°32.819 19.5673 0.073452 0.396856 -3.020363
2011-05-09 09:38:17 51°8.857 2°32.774 19.5612 0.073452 0.396877 -3.020363
2011-05-09 09:39:18 51°8.899 2°32.808 19.6042 0.073452 0.396932 -3.020363
2011-05-09 09:40:17 51°8.93 2°33.02 19.5618 0.073452 0.396925 -3.020363
2011-05-09 09:41:18 51°8.964 2°33.318 19.5991 0.073452 0.396952 -3.020363
2011-05-09 09:42:17 51°8.991 2°33.616 19.647 0.073452 0.396973 -3.020363
2011-05-09 09:43:18 51°9.032 2°33.917 19.657 0.073452 0.397001 -3.020363
2011-05-09 09:44:17 51°9.061 2°34.21 19.7056 0.073452 0.397035 -3.020363
2011-05-09 09:45:18 51°9.102 2°34.509 19.7024 0.073349 0.396489 -3.020363
2011-05-09 09:46:17 51°9.138 2°34.799 19.7298 0.073349 0.396509 -3.020363
2011-05-09 09:47:17 51°9.166 2°35.097 19.7703 0.073452 0.397132 -3.020363
2011-05-09 09:48:17 51°9.206 2°35.39 19.7616 0.073349 0.396592 -3.020363
2011-05-09 09:49:18 51°9.234 2°35.692 19.8239 0.073349 0.39664 -3.020363
2011-05-09 09:50:17 51°9.272 2°35.958 19.8574 0.073349 0.396675 -3.020363
2011-05-09 09:51:18 51°9.316 2°36.084 19.8824 0.073349 0.396723 -3.020363
2011-05-09 09:52:18 51°9.343 2°36.092 19.9165 0.073349 0.396751 -3.020363
2011-05-09 09:53:18 51°9.35 2°36.072 19.9358 0.073349 0.396786 -3.020363
2011-05-09 09:54:18 51°9.354 2°36.052 19.9612 0.073349 0.396827 -3.020363
2011-05-09 09:55:18 51°9.357 2°36.029 19.9856 0.073349 0.396848 -3.020363
2011-05-09 09:56:18 51°9.357 2°36.004 19.9992 0.073349 0.396869 -3.020363
2011-05-09 09:57:18 51°9.356 2°35.978 20.031 0.073349 0.396889 -3.020363
2011-05-09 09:58:18 51°9.355 2°35.95 20.0556 0.073349 0.39691 -3.020363
2011-05-09 09:59:18 51°9.352 2°35.922 20.0785 0.073349 0.396924 -3.020363
2011-05-09 10:00:18 51°9.349 2°35.894 20.1095 0.073349 0.396938 -3.020363
2011-05-09 10:01:18 51°9.345 2°35.865 20.1283 0.073349 0.396952 -3.020363
2011-05-09 10:02:18 51°9.352 2°35.849 20.1513 0.073349 0.396979 -3.020363
2011-05-09 10:03:18 51°9.38 2°35.823 20.1653 0.073349 0.396986 -3.020363
2011-05-09 10:04:18 51°9.419 2°35.79 20.1906 0.073349 0.396993 -3.020363
2011-05-09 10:05:18 51°9.472 2°35.759 20.2148 0.073349 0.397014 -3.020363
2011-05-09 10:06:18 51°9.535 2°35.73 20.2462 0.073349 0.397035 -3.020363
2011-05-09 10:07:18 51°9.585 2°35.647 20.2637 0.073349 0.397055 -3.020363
2011-05-09 10:08:18 51°9.633 2°35.479 20.2477 0.073349 0.397048 -3.020363
2011-05-09 10:09:18 51°9.741 2°35.308 20.273 0.073349 0.397062 -3.020363
2011-05-09 10:10:18 51°9.907 2°35.253 20.2761 0.073349 0.397083 -3.020363
2011-05-09 10:11:18 51°10.089 2°35.343 20.336 0.073349 0.397097 -3.020363
2011-05-09 10:12:18 51°10.27 2°35.455 20.3376 0.073349 0.397118 -3.020363
2011-05-09 10:13:18 51°10.44 2°35.596 20.3718 0.073349 0.397132 -3.020363
2011-05-09 10:14:18 51°10.601 2°35.758 20.3976 0.073349 0.397145 -3.020363
2011-05-09 10:15:17 51°10.763 2°35.911 20.4113 0.073349 0.397152 -3.020363
2011-05-09 10:16:18 51°10.923 2°36.083 20.4427 0.073349 0.397159 -3.020363
2011-05-09 10:17:18 51°11.092 2°36.224 20.4438 0.073349 0.397159 -3.020363
2011-05-09 10:18:18 51°11.249 2°36.392 20.4763 0.073349 0.39718 -3.020363
2011-05-09 10:19:18 51°11.415 2°36.539 20.4846 0.073349 0.39718 -3.020363
2011-05-09 10:20:18 51°11.571 2°36.708 20.5102 0.073349 0.397201 -3.020363
2011-05-09 10:21:18 51°11.737 2°36.851 20.5121 0.073349 0.397215 -3.020363
2011-05-09 10:22:18 51°11.893 2°37.018 20.5555 0.073349 0.397235 -3.020363
2011-05-09 10:23:18 51°12.061 2°37.152 20.5491 0.073349 0.397242 -3.020363
2011-05-09 10:24:17 51°12.221 2°37.298 20.5844 0.073349 0.397256 -3.020363
2011-05-09 10:25:18 51°12.393 2°37.431 20.5822 0.073349 0.39727 -3.020363
2011-05-09 10:26:18 51°12.553 2°37.587 20.6221 0.073349 0.397305 -3.020363
2011-05-09 10:27:18 51°12.722 2°37.72 20.6301 0.073349 0.397319 -3.020363
2011-05-09 10:28:18 51°12.883 2°37.873 20.6562 0.073349 0.397339 -3.020363
2011-05-09 10:29:18 51°13.052 2°38.008 20.665 0.073349 0.397353 -3.020363
2011-05-09 10:30:18 51°13.22 2°38.145 20.6796 0.073349 0.397367 -3.020363
2011-05-09 10:31:18 51°13.383 2°38.299 20.7036 0.073349 0.397395 -3.020363
2011-05-09 10:32:18 51°13.556 2°38.432 20.7121 0.073349 0.397402 -3.020363
2011-05-09 10:33:18 51°13.72 2°38.586 20.7457 0.073349 0.397423 -3.020363
2011-05-09 10:34:18 51°13.902 2°38.688 20.7471 0.073349 0.39743 -3.020363
2011-05-09 10:35:18 51°14.098 2°38.686 20.7655 0.073349 0.39745 -3.020363
2011-05-09 10:36:18 51°14.294 2°38.561 20.7793 0.073349 0.397444 -3.020363
2011-05-09 10:37:18 51°14.493 2°38.447 20.7948 0.073349 0.397457 -3.020363
2011-05-09 10:38:18 51°14.691 2°38.342 20.8112 0.073349 0.397485 -3.020363
2011-05-09 10:39:18 51°14.888 2°38.248 20.8346 0.073349 0.397513 -3.020363
2011-05-09 10:40:18 51°15.075 2°38.107 20.8452 0.073349 0.397527 -3.020363
2011-05-09 10:41:18 51°15.264 2°37.977 20.8658 0.073349 0.397555 -3.020363
2011-05-09 10:42:18 51°15.445 2°37.806 20.8784 0.073349 0.397568 -3.020363
2011-05-09 10:43:18 51°15.633 2°37.656 20.896 0.073349 0.397589 -3.020363
2011-05-09 10:44:18 51°15.817 2°37.492 20.91 0.073349 0.39761 -3.020363
2011-05-09 10:45:18 51°16.007 2°37.346 20.9263 0.073349 0.397624 -3.020363
2011-05-09 10:46:18 51°16.197 2°37.193 20.9386 0.073349 0.397638 -3.020363
2011-05-09 10:47:18 51°16.388 2°37.046 20.9567 0.073349 0.397666 -3.020363
2011-05-09 10:48:18 51°16.521 2°36.885 20.9672 0.073349 0.397659 -3.020363
2011-05-09 10:49:17 51°16.601 2°36.848 20.9846 0.073349 0.397694 -3.020363
2011-05-09 10:50:18 51°16.61 2°36.813 20.9985 0.073349 0.397721 -3.020363
2011-05-09 10:51:18 51°16.603 2°36.779 21.0072 0.073349 0.397721 -3.020363
2011-05-09 10:52:18 51°16.594 2°36.744 21.0179 0.073349 0.397728 -3.020363
2011-05-09 10:53:17 51°16.586 2°36.71 21.0274 0.073246 0.397166 -3.020363
2011-05-09 10:54:18 51°16.576 2°36.675 21.0378 0.073246 0.397173 -3.020363
2011-05-09 10:55:18 51°16.567 2°36.642 21.0484 0.073349 0.397756 -3.020363
2011-05-09 10:56:18 51°16.557 2°36.61 21.0598 0.073349 0.39777 -3.020363
2011-05-09 10:57:18 51°16.548 2°36.578 21.0639 0.073349 0.39777 -3.020363
2011-05-09 10:58:17 51°16.538 2°36.547 21.0763 0.073349 0.397777 -3.020363
2011-05-09 10:59:18 51°16.528 2°36.516 21.0847 0.073349 0.39777 -3.020363
2011-05-09 11:00:17 51°16.518 2°36.487 21.0957 0.073349 0.39777 -3.020363
2011-05-09 11:01:18 51°16.507 2°36.456 21.1058 0.073349 0.39777 -3.020363
2011-05-09 11:02:16 51°16.525 2°36.461 21.1211 0.073349 0.397784 -3.020363
2011-05-09 11:03:18 51°16.544 2°36.567 21.1291 0.073349 0.39777 -3.020363
2011-05-09 11:04:18 51°16.573 2°36.703 21.1416 0.073349 0.397777 -3.020363
2011-05-09 11:05:17 51°16.578 2°36.798 21.1513 0.073349 0.39777 -3.020363
2011-05-09 11:06:18 51°16.575 2°36.815 21.159 0.073349 0.39777 -3.020363
2011-05-09 11:07:18 51°16.574 2°36.803 21.1682 0.073349 0.39777 -3.020363
2011-05-09 11:08:18 51°16.573 2°36.781 21.1774 0.073349 0.397763 -3.020363
2011-05-09 11:09:18 51°16.57 2°36.754 21.1881 0.073349 0.39777 -3.020363
2011-05-09 11:10:18 51°16.566 2°36.724 21.1958 0.073349 0.39777 -3.020363
2011-05-09 11:11:18 51°16.562 2°36.694 21.2043 0.073349 0.397777 -3.020363
2011-05-09 11:12:18 51°16.556 2°36.663 21.2139 0.073349 0.397784 -3.020363
2011-05-09 11:13:18 51°16.55 2°36.631 21.2233 0.073349 0.397791 -3.020363
2011-05-09 11:14:17 51°16.544 2°36.599 21.2333 0.073349 0.397805 -3.020363
2011-05-09 11:15:18 51°16.536 2°36.565 21.2413 0.073349 0.397819 -3.020363
2011-05-09 11:16:18 51°16.529 2°36.533 21.2507 0.073349 0.397833 -3.020363
2011-05-09 11:17:18 51°16.52 2°36.5 21.2588 0.073349 0.39784 -3.020363
2011-05-09 11:18:18 51°16.512 2°36.467 21.2674 0.073349 0.397853 -3.020363
2011-05-09 11:19:17 51°16.502 2°36.434 21.2741 0.073349 0.397853 -3.020363
2011-05-09 11:20:17 51°16.493 2°36.401 21.2831 0.073349 0.39786 -3.020363
2011-05-09 11:21:18 51°16.483 2°36.368 21.291 0.073349 0.39786 -3.020363
2011-05-09 11:22:18 51°16.473 2°36.335 21.3002 0.073349 0.39786 -3.020363
2011-05-09 11:23:18 51°16.463 2°36.302 21.3074 0.073349 0.39786 -3.020363
2011-05-09 11:24:18 51°16.452 2°36.27 21.3146 0.073349 0.397853 -3.020363
2011-05-09 11:25:17 51°16.442 2°36.237 21.3239 0.073349 0.397853 -3.020363
2011-05-09 11:26:18 51°16.431 2°36.203 21.3311 0.073349 0.397847 -3.020363
2011-05-09 11:27:17 51°16.42 2°36.17 21.3393 0.073349 0.39784 -3.020363
2011-05-09 11:28:18 51°16.409 2°36.136 21.3491 0.073349 0.397826 -3.020363
2011-05-09 11:29:18 51°16.398 2°36.102 21.3571 0.073349 0.397819 -3.020363
2011-05-09 11:30:18 51°16.387 2°36.069 21.3654 0.073349 0.397812 -3.020363
2011-05-09 11:31:18 51°16.375 2°36.037 21.3732 0.073349 0.397805 -3.020363
2011-05-09 11:32:18 51°16.363 2°36.005 21.3808 0.073349 0.397791 -3.020363
2011-05-09 11:33:18 51°16.352 2°35.974 21.3887 0.073349 0.397784 -3.020363
2011-05-09 11:34:18 51°16.34 2°35.943 21.3966 0.073349 0.39777 -3.020363
2011-05-09 11:35:18 51°16.329 2°35.914 21.4044 0.073349 0.397763 -3.020363
2011-05-09 11:36:18 51°16.317 2°35.884 21.4205 0.073349 0.397749 -3.020363
2011-05-09 11:37:18 51°16.305 2°35.854 21.4275 0.073349 0.397735 -3.020363
2011-05-09 11:38:17 51°16.293 2°35.826 21.4351 0.073349 0.397721 -3.020363
2011-05-09 11:39:18 51°16.281 2°35.798 21.4424 0.073349 0.397707 -3.020363
2011-05-09 11:40:17 51°16.27 2°35.772 21.4475 0.073349 0.397694 -3.020363
2011-05-09 11:41:18 51°16.257 2°35.744 21.4545 0.073349 0.39768 -3.020363
2011-05-09 11:42:18 51°16.244 2°35.717 21.4607 0.073349 0.397666 -3.020363
2011-05-09 11:43:17 51°16.233 2°35.69 21.4669 0.073349 0.397652 -3.020363
2011-05-09 11:44:18 51°16.22 2°35.663 21.4738 0.073349 0.397638 -3.020363
2011-05-09 11:45:17 51°16.206 2°35.636 21.4801 0.073452 0.3982 -3.020363
2011-05-09 11:46:18 51°16.193 2°35.615 21.4859 0.073452 0.398186 -3.020363
2011-05-09 11:47:16 51°16.148 2°35.662 21.521 0.073452 0.398186 -3.020363
2011-05-09 11:48:17 51°16.055 2°35.66 21.5164 0.073452 0.398165 -3.020363
2011-05-09 11:49:18 51°15.976 2°35.61 21.5285 0.073452 0.398145 -3.020363
2011-05-09 11:50:17 51°15.913 2°35.556 21.5445 0.073452 0.398131 -3.020363
2011-05-09 11:51:18 51°15.857 2°35.496 21.5579 0.073452 0.398117 -3.020363
2011-05-09 11:52:17 51°15.808 2°35.433 21.5625 0.073452 0.39811 -3.020363
2011-05-09 11:53:17 51°15.763 2°35.372 21.567 0.073452 0.398096 -3.020363
2011-05-09 11:54:17 51°15.72 2°35.311 21.5818 0.073452 0.398082 -3.020363
2011-05-09 11:55:18 51°15.672 2°35.248 21.5916 0.073452 0.398068 -3.020363
2011-05-09 11:56:17 51°15.624 2°35.186 21.5973 0.073452 0.398054 -3.020363
2011-05-09 11:57:17 51°15.572 2°35.124 21.6062 0.073452 0.39804 -3.020363
2011-05-09 11:58:18 51°15.519 2°35.061 21.6119 0.073452 0.398026 -3.020363
2011-05-09 11:59:18 51°15.468 2°34.998 21.6187 0.073452 0.398012 -3.020363
2011-05-09 12:00:18 51°15.414 2°34.94 21.6218 0.073452 0.397992 -3.020363
2011-05-09 12:01:17 51°15.361 2°34.882 21.6428 0.073452 0.397985 -3.020363
2011-05-09 12:02:18 51°15.307 2°34.82 21.6493 0.073452 0.397964 -3.020363
2011-05-09 12:03:18 51°15.255 2°34.756 21.6565 0.073452 0.39795 -3.020363
2011-05-09 12:04:18 51°15.202 2°34.692 21.6588 0.073452 0.397936 -3.020363
2011-05-09 12:05:17 51°15.151 2°34.63 21.6664 0.073452 0.397915 -3.020363
2011-05-09 12:06:17 51°15.099 2°34.566 21.6837 0.073452 0.397901 -3.020363
2011-05-09 12:07:17 51°15.046 2°34.505 21.6934 0.073452 0.39788 -3.020363
2011-05-09 12:08:17 51°14.993 2°34.445 21.6936 0.073555 0.398435 -3.020363
2011-05-09 12:09:17 51°14.938 2°34.387 21.7018 0.073555 0.398421 -3.020363
2011-05-09 12:10:17 51°14.884 2°34.329 21.7114 0.073555 0.398407 -3.020363
2011-05-09 12:11:18 51°14.829 2°34.27 21.7164 0.073555 0.398387 -3.020363
2011-05-09 12:12:17 51°14.776 2°34.212 21.7285 0.073555 0.398366 -3.020363
2011-05-09 12:13:18 51°14.722 2°34.15 21.7288 0.073555 0.398345 -3.020363
2011-05-09 12:14:17 51°14.671 2°34.091 21.7349 0.073555 0.398324 -3.020363
2011-05-09 12:15:18 51°14.618 2°34.031 21.7486 0.073555 0.398303 -3.020363
2011-05-09 12:16:18 51°14.565 2°33.969 21.7509 0.073555 0.398282 -3.020363
2011-05-09 12:17:18 51°14.514 2°33.908 21.7555 0.073555 0.398255 -3.020363
2011-05-09 12:18:18 51°14.463 2°33.849 21.7598 0.073555 0.398234 -3.020363
2011-05-09 12:19:17 51°14.411 2°33.792 21.7707 0.073555 0.398206 -3.020363
2011-05-09 12:20:18 51°14.359 2°33.731 21.767 0.073555 0.398185 -3.020363
2011-05-09 12:21:17 51°14.322 2°33.655 21.7848 0.073555 0.398164 -3.020363
2011-05-09 12:22:17 51°14.297 2°33.568 21.7878 0.073555 0.398143 -3.020363
2011-05-09 12:23:17 51°14.285 2°33.477 21.7987 0.073555 0.398116 -3.020363
2011-05-09 12:24:17 51°14.284 2°33.388 21.8027 0.073555 0.398095 -3.020363
2011-05-09 12:25:16 51°14.295 2°33.307 21.8058 0.073555 0.398081 -3.020363
2011-05-09 12:26:18 51°14.322 2°33.24 21.8135 0.073555 0.398067 -3.020363
2011-05-09 12:27:18 51°14.351 2°33.208 21.8244 0.073555 0.398053 -3.020363
2011-05-09 12:28:17 51°14.367 2°33.185 21.8244 0.073657 0.398608 -3.020363
2011-05-09 12:29:18 51°14.377 2°33.163 21.8188 0.073555 0.398019 -3.020363
2011-05-09 12:30:17 51°14.381 2°33.14 21.8217 0.073555 0.397991 -3.020363
2011-05-09 12:31:17 51°14.385 2°33.115 21.8395 0.073657 0.398545 -3.020363
2011-05-09 12:32:17 51°14.413 2°33.122 21.8433 0.073657 0.398538 -3.020363
2011-05-09 12:33:17 51°14.413 2°33.222 21.8569 0.073657 0.398524 -3.020363
2011-05-09 12:34:17 51°14.35 2°33.294 21.866 0.073657 0.398483 -3.020363
2011-05-09 12:35:18 51°14.274 2°33.304 21.8643 0.073657 0.398455 -3.020363
2011-05-09 12:36:18 51°14.201 2°33.27 21.8791 0.073657 0.398441 -3.020363
2011-05-09 12:37:17 51°14.136 2°33.225 21.882 0.073657 0.398413 -3.020363
2011-05-09 12:38:17 51°14.074 2°33.184 21.9046 0.073657 0.398378 -3.020363
2011-05-09 12:39:18 51°14.014 2°33.14 21.9018 0.073657 0.398358 -3.020363
2011-05-09 12:40:18 51°13.956 2°33.091 21.9186 0.073657 0.398337 -3.020363
2011-05-09 12:41:17 51°13.901 2°33.042 21.9211 0.073657 0.398309 -3.020363
2011-05-09 12:42:18 51°13.845 2°32.991 21.9427 0.073657 0.398288 -3.020363
2011-05-09 12:43:18 51°13.79 2°32.938 21.9319 0.073657 0.398254 -3.020363
2011-05-09 12:44:18 51°13.737 2°32.883 21.9494 0.073657 0.398233 -3.020363
2011-05-09 12:45:17 51°13.684 2°32.833 21.9675 0.073657 0.398205 -3.020363
2011-05-09 12:46:17 51°13.63 2°32.784 21.9678 0.073657 0.398184 -3.020363
2011-05-09 12:47:17 51°13.575 2°32.736 21.9791 0.073657 0.398157 -3.020363
2011-05-09 12:48:18 51°13.52 2°32.685 21.9929 0.073657 0.398129 -3.020363
2011-05-09 12:49:18 51°13.466 2°32.635 22.0002 0.07376 0.398676 -3.020363
2011-05-09 12:50:17 51°13.412 2°32.585 22.0153 0.073657 0.398073 -3.020363
2011-05-09 12:51:17 51°13.36 2°32.53 22.0209 0.07376 0.39862 -3.020363
2011-05-09 12:52:17 51°13.309 2°32.465 22.0407 0.07376 0.398599 -3.020363
2011-05-09 12:53:17 51°13.259 2°32.394 22.0344 0.07376 0.398565 -3.020363
2011-05-09 12:54:17 51°13.213 2°32.315 22.0391 0.07376 0.398537 -3.020363
2011-05-09 12:55:18 51°13.17 2°32.229 22.0456 0.07376 0.398516 -3.020363
2011-05-09 12:56:18 51°13.13 2°32.142 22.0533 0.07376 0.398488 -3.020363
2011-05-09 12:57:17 51°13.094 2°32.053 22.0545 0.07376 0.398461 -3.020363
2011-05-09 12:58:17 51°13.06 2°31.962 22.05 0.07376 0.398447 -3.020363
2011-05-09 12:59:17 51°13.024 2°31.871 22.0661 0.07376 0.398426 -3.020363
2011-05-09 13:00:18 51°12.987 2°31.779 22.0648 0.07376 0.398412 -3.020363
2011-05-09 13:01:17 51°12.951 2°31.692 22.0791 0.07376 0.398398 -3.020363
2011-05-09 13:02:18 51°12.913 2°31.603 22.0934 0.07376 0.398384 -3.020363
2011-05-09 13:03:17 51°12.874 2°31.519 22.0858 0.07376 0.398371 -3.020363
2011-05-09 13:04:17 51°12.842 2°31.428 22.0838 0.07376 0.398364 -3.020363
2011-05-09 13:05:18 51°12.836 2°31.33 22.0941 0.07376 0.39835 -3.020363
2011-05-09 13:06:18 51°12.845 2°31.238 22.1115 0.07376 0.398336 -3.020363
2011-05-09 13:07:17 51°12.862 2°31.152 22.1285 0.07376 0.398322 -3.020363
2011-05-09 13:08:18 51°12.892 2°31.082 22.1255 0.07376 0.398315 -3.020363
2011-05-09 13:09:18 51°12.936 2°31.05 22.1193 0.07376 0.398308 -3.020363
2011-05-09 13:10:17 51°12.984 2°31.071 22.1293 0.07376 0.398301 -3.020363
2011-05-09 13:11:17 51°13.007 2°31.135 22.1377 0.07376 0.398281 -3.020363
2011-05-09 13:12:17 51°13.002 2°31.218 22.1528 0.07376 0.39826 -3.020363
2011-05-09 13:13:17 51°12.989 2°31.274 22.1685 0.07376 0.398239 -3.020363
2011-05-09 13:14:18 51°12.971 2°31.307 22.1613 0.07376 0.398218 -3.020363
2011-05-09 13:15:17 51°12.953 2°31.325 22.1593 0.07376 0.398191 -3.020363
2011-05-09 13:16:17 51°12.937 2°31.334 22.1702 0.07376 0.39817 -3.020363
2011-05-09 13:17:17 51°12.921 2°31.336 22.1668 0.073863 0.398716 -3.020363
2011-05-09 13:18:18 51°12.906 2°31.334 22.1717 0.073863 0.398681 -3.020363
2011-05-09 13:19:18 51°12.884 2°31.336 22.1922 0.073863 0.398654 -3.020363
2011-05-09 13:20:17 51°12.845 2°31.426 22.1863 0.073863 0.398619 -3.020363
2011-05-09 13:21:18 51°12.878 2°31.629 22.2318 0.073863 0.398564 -3.020363
2011-05-09 13:22:18 51°12.95 2°31.879 22.2836 0.073863 0.398536 -3.020363
2011-05-09 13:23:18 51°13.004 2°32.173 22.2593 0.073863 0.398501 -3.020363
2011-05-09 13:24:17 51°13.053 2°32.47 22.2613 0.073863 0.39846 -3.020363
2011-05-09 13:25:18 51°13.141 2°32.755 22.2527 0.073863 0.398425 -3.020363
2011-05-09 13:26:18 51°13.255 2°33.012 22.2899 0.073863 0.398384 -3.020363
2011-05-09 13:27:17 51°13.359 2°33.275 22.2581 0.073863 0.398356 -3.020363
2011-05-09 13:28:17 51°13.444 2°33.557 22.3 0.073863 0.398322 -3.020363
2011-05-09 13:29:17 51°13.474 2°33.87 22.2811 0.073863 0.39828 -3.020363
2011-05-09 13:30:18 51°13.524 2°34.182 22.2748 0.073863 0.398239 -3.020363
2011-05-09 13:31:17 51°13.578 2°34.483 22.265 0.073966 0.398784 -3.020363
2011-05-09 13:32:18 51°13.635 2°34.793 22.2968 0.073966 0.398749 -3.020363
2011-05-09 13:33:17 51°13.685 2°35.099 22.2798 0.073966 0.398715 -3.020363
2011-05-09 13:34:18 51°13.74 2°35.417 22.2913 0.073966 0.398673 -3.020363
2011-05-09 13:35:17 51°13.779 2°35.729 22.2874 0.073966 0.398653 -3.020363
2011-05-09 13:36:17 51°13.835 2°36.039 22.3025 0.073966 0.398604 -3.020363
2011-05-09 13:37:17 51°13.879 2°36.354 22.3005 0.073966 0.398584 -3.020363
2011-05-09 13:38:17 51°13.929 2°36.663 22.364 0.073966 0.398542 -3.020363
2011-05-09 13:39:18 51°13.966 2°36.98 22.3133 0.073966 0.398515 -3.020363
2011-05-09 13:40:17 51°13.998 2°37.285 22.3168 0.073966 0.398487 -3.020363
2011-05-09 13:41:17 51°14.044 2°37.589 22.3228 0.073966 0.398446 -3.020363
2011-05-09 13:42:17 51°14.08 2°37.898 22.3632 0.073966 0.398418 -3.020363
2011-05-09 13:43:17 51°14.121 2°38.205 22.3394 0.073966 0.398383 -3.020363
2011-05-09 13:44:18 51°14.159 2°38.52 22.3387 0.073966 0.398356 -3.020363
2011-05-09 13:45:18 51°14.196 2°38.832 22.3661 0.074069 0.398894 -3.020363
2011-05-09 13:46:17 51°14.233 2°39.141 22.3643 0.074069 0.398859 -3.020363
2011-05-09 13:47:17 51°14.248 2°39.465 22.3486 0.074069 0.398838 -3.020363
2011-05-09 13:48:18 51°14.277 2°39.794 22.3854 0.074069 0.39879 -3.020363
2011-05-09 13:49:17 51°14.286 2°40.118 22.3732 0.074069 0.398762 -3.020363
2011-05-09 13:50:18 51°14.293 2°40.455 22.3692 0.074069 0.398735 -3.020363
2011-05-09 13:51:17 51°14.316 2°40.779 22.3896 0.074069 0.398693 -3.020363
2011-05-09 13:52:17 51°14.324 2°41.11 22.3907 0.074069 0.398666 -3.020363
2011-05-09 13:53:17 51°14.336 2°41.439 22.391 0.074069 0.398631 -3.020363
2011-05-09 13:54:17 51°14.358 2°41.767 22.4092 0.074069 0.398604 -3.020363
2011-05-09 13:55:18 51°14.373 2°42.103 22.4128 0.074069 0.398576 -3.020363
2011-05-09 13:56:18 51°14.382 2°42.432 22.3987 0.074069 0.398542 -3.020363
2011-05-09 13:57:18 51°14.404 2°42.759 22.4031 0.074069 0.398514 -3.020363
2011-05-09 13:58:18 51°14.415 2°43.086 22.4172 0.074069 0.398487 -3.020363
2011-05-09 13:59:18 51°14.432 2°43.412 22.4373 0.074171 0.399031 -3.020363
2011-05-09 14:00:18 51°14.457 2°43.735 22.4466 0.074069 0.398425 -3.020363
2011-05-09 14:01:17 51°14.471 2°44.058 22.4572 0.074171 0.398976 -3.020363
2011-05-09 14:02:18 51°14.5 2°44.391 22.461 0.074171 0.398941 -3.020363
2011-05-09 14:03:18 51°14.512 2°44.721 22.4718 0.074171 0.398927 -3.020363
2011-05-09 14:04:18 51°14.533 2°45.049 22.4586 0.074171 0.3989 -3.020363
2011-05-09 14:05:18 51°14.551 2°45.376 22.4621 0.074171 0.398872 -3.020363
2011-05-09 14:06:18 51°14.568 2°45.703 22.4696 0.074171 0.398838 -3.020363
2011-05-09 14:07:18 51°14.589 2°46.031 22.4648 0.074171 0.398803 -3.020363
2011-05-09 14:08:18 51°14.605 2°46.36 22.4928 0.074171 0.398769 -3.020363
2011-05-09 14:09:18 51°14.632 2°46.688 22.4926 0.074171 0.398727 -3.020363
2011-05-09 14:10:18 51°14.644 2°47.021 22.4862 0.074171 0.398693 -3.020363
2011-05-09 14:11:17 51°14.661 2°47.351 22.4791 0.074171 0.398652 -3.020363
2011-05-09 14:12:18 51°14.692 2°47.687 22.5215 0.074171 0.398604 -3.020363
2011-05-09 14:13:18 51°14.707 2°48.021 22.5002 0.074171 0.398562 -3.020363
2011-05-09 14:14:18 51°14.725 2°48.354 22.5259 0.074274 0.399085 -3.020363
2011-05-09 14:15:17 51°14.752 2°48.678 22.5618 0.074274 0.39903 -3.020363
2011-05-09 14:16:18 51°14.766 2°49.015 22.5123 0.074274 0.398989 -3.020363
2011-05-09 14:17:18 51°14.793 2°49.341 22.5502 0.074274 0.398927 -3.020363
2011-05-09 14:18:18 51°14.809 2°49.67 22.5639 0.074274 0.398879 -3.020363
2011-05-09 14:19:18 51°14.834 2°49.996 22.5687 0.074274 0.39883 -3.020363
2011-05-09 14:20:17 51°14.851 2°50.32 22.5527 0.074274 0.398782 -3.020363
2011-05-09 14:21:18 51°14.873 2°50.657 22.6101 0.074274 0.398707 -3.020363
2011-05-09 14:22:17 51°14.872 2°50.984 22.5804 0.074377 0.399243 -3.020363
2011-05-09 14:23:18 51°14.869 2°51.321 22.5931 0.074377 0.399181 -3.020363
2011-05-09 14:24:17 51°14.865 2°51.647 22.5747 0.074377 0.399133 -3.020363
2011-05-09 14:25:17 51°14.859 2°51.98 22.607 0.074377 0.399078 -3.020363
2011-05-09 14:26:18 51°14.862 2°52.317 22.6166 0.074377 0.399023 -3.020363
2011-05-09 14:27:17 51°14.849 2°52.641 22.6179 0.074377 0.398981 -3.020363
2011-05-09 14:28:18 51°14.845 2°52.98 22.6409 0.074377 0.398926 -3.020363
2011-05-09 14:29:17 51°14.83 2°53.307 22.6215 0.074377 0.398899 -3.020363
2011-05-09 14:30:18 51°14.831 2°53.65 22.6842 0.07448 0.399414 -3.020363
2011-05-09 14:31:18 51°14.802 2°53.982 22.6349 0.07448 0.3994 -3.020363
2011-05-09 14:32:18 51°14.764 2°54.308 22.6581 0.07448 0.39938 -3.020363
2011-05-09 14:33:18 51°14.695 2°54.616 22.7412 0.07448 0.399338 -3.020363
2011-05-09 14:34:17 51°14.592 2°54.891 20.2199 0.07448 0.399304 -3.020363
2011-05-09 14:35:18 51°14.444 2°55.1 20.2637 0.07448 0.399283 -3.020363
2011-05-09 14:36:17 51°14.336 2°55.212 20.2908 0.07448 0.399249 -3.020363
2011-05-09 14:37:18 51°14.232 2°55.316 20.5984 0.07448 0.399208 -3.020363
2011-05-09 14:38:18 51°14.112 2°55.417 20.6685 0.07448 0.399173 -3.020363
2011-05-09 14:39:17 51°14 2°55.498 20.6487 0.07448 0.399139 -3.020363
2011-05-09 14:40:18 51°13.901 2°55.568 20.7622 0.07448 0.399091 -3.020363
2011-05-09 14:41:17 51°13.811 2°55.638 20.7771 0.07448 0.399064 -3.020363
2011-05-09 14:42:18 51°13.737 2°55.741 20.8162 0.074583 0.399578 -3.020363
2011-05-09 14:43:17 51°13.693 2°55.835 20.8961 0.074583 0.399544 -3.020363
2011-05-09 14:44:17 51°13.671 2°55.92 20.9618 0.074583 0.399502 -3.020363
2011-05-09 14:45:17 51°13.662 2°55.957 20.9292 0.074583 0.399475 -3.020363
2011-05-09 14:46:21 51°13.661 2°55.96 20.9388 0.074583 0.399434 -3.020363